Time;durP1;ratioP1;P1;durP2;ratioP2;P2;SDS_P1;SDS_P2;PMS_P1;PMS_P2;Temp;Humidity;BMP_temperature;BMP_pressure;BME280_temperature;BME280_humidity;BME280_pressure;Samples;Min_cycle;Max_cycle;Signal;HPM_P1;HPM_P2
2022/08/16 00:01:59;;;;;;;22.38;16.13;;;21.40;99.90;;;;;;5098728;28;20082;-68
2022/08/16 00:04:25;;;;;;;23.15;16.63;;;21.50;99.90;;;;;;5084040;28;20060;-69
2022/08/16 00:06:51;;;;;;;21.20;17.05;;;21.50;99.90;;;;;;5087447;28;20371;-69
2022/08/16 00:09:17;;;;;;;23.70;18.23;;;21.50;99.90;;;;;;5084983;28;20122;-69
2022/08/16 00:11:44;;;;;;;20.63;16.08;;;21.50;99.90;;;;;;5092518;28;20048;-68
2022/08/16 00:14:15;;;;;;;22.92;16.33;;;21.50;99.90;;;;;;5103850;28;20051;-68
2022/08/16 00:16:41;;;;;;;20.23;17.65;;;21.50;99.90;;;;;;5094796;28;20074;-69
2022/08/16 00:19:06;;;;;;;23.75;18.58;;;21.50;99.90;;;;;;5088113;28;20064;-68
2022/08/16 00:21:33;;;;;;;23.52;18.80;;;21.50;99.90;;;;;;5079218;28;20083;-68
2022/08/16 00:23:59;;;;;;;22.17;18.13;;;21.40;99.90;;;;;;5093534;28;20394;-68
2022/08/16 00:26:25;;;;;;;21.73;18.02;;;21.40;99.90;;;;;;5080159;28;20036;-68
2022/08/16 00:28:51;;;;;;;19.98;16.23;;;21.40;99.90;;;;;;5104500;28;20044;-68
2022/08/16 00:31:16;;;;;;;16.92;15.13;;;21.40;99.90;;;;;;5076793;28;20052;-68
2022/08/16 00:33:42;;;;;;;20.13;17.02;;;21.40;99.90;;;;;;5079705;28;20080;-68
2022/08/16 00:36:08;;;;;;;22.73;16.67;;;21.40;99.90;;;;;;5080541;28;20045;-68
2022/08/16 00:38:34;;;;;;;23.90;18.92;;;21.40;99.90;;;;;;5074104;28;20064;-68
2022/08/16 00:41:00;;;;;;;23.02;18.08;;;21.40;99.90;;;;;;5090459;28;20390;-67
2022/08/16 00:43:34;;;;;;;19.95;17.63;;;21.40;99.90;;;;;;5079890;28;20045;-68
2022/08/16 00:46:14;;;;;;;20.70;18.40;;;21.40;99.90;;;;;;5074202;28;20499;-68
2022/08/16 00:48:43;;;;;;;20.75;17.27;;;21.40;99.90;;;;;;5072109;28;20040;-68
2022/08/16 00:51:09;;;;;;;25.20;18.58;;;21.40;99.90;;;;;;5080110;28;20051;-68
2022/08/16 00:53:35;;;;;;;22.20;18.30;;;21.40;99.90;;;;;;5076433;28;20049;-69
2022/08/16 00:56:07;;;;;;;31.88;18.15;;;21.40;99.90;;;;;;5084453;28;20051;-68
2022/08/16 00:58:36;;;;;;;20.80;17.58;;;21.40;99.90;;;;;;5083503;28;20479;-68
2022/08/16 01:01:04;;;;;;;23.30;17.83;;;21.40;99.90;;;;;;5080231;28;20044;-68
2022/08/16 01:03:29;;;;;;;26.77;18.08;;;21.40;99.90;;;;;;5094426;28;20036;-68
2022/08/16 01:05:55;;;;;;;20.70;16.95;;;21.40;99.90;;;;;;5067825;28;20100;-68
2022/08/16 01:08:23;;;;;;;21.23;15.63;;;21.40;99.90;;;;;;5081803;28;20036;-69
2022/08/16 01:10:49;;;;;;;19.25;17.13;;;21.40;99.90;;;;;;5092296;28;20055;-68
2022/08/16 01:13:19;;;;;;;26.00;18.92;;;21.40;99.90;;;;;;5092045;28;20044;-68
2022/08/16 01:16:05;;;;;;;23.77;18.80;;;21.50;99.90;;;;;;5083295;28;20036;-68
2022/08/16 01:18:46;;;;;;;20.40;18.10;;;21.40;99.90;;;;;;5086407;28;20078;-68
2022/08/16 01:21:27;;;;;;;26.20;19.25;;;21.40;99.90;;;;;;5084674;28;20036;-68
2022/08/16 01:24:14;;;;;;;25.48;18.13;;;21.40;99.90;;;;;;5084549;28;20131;-68
2022/08/16 01:26:43;;;;;;;26.50;19.50;;;21.30;99.90;;;;;;5089836;28;20036;-68
2022/08/16 01:29:15;;;;;;;22.40;20.00;;;21.30;99.90;;;;;;5090613;28;20102;-67
2022/08/16 01:31:41;;;;;;;21.45;19.00;;;21.30;99.90;;;;;;5077891;28;20037;-67
2022/08/16 01:34:07;;;;;;;29.85;21.38;;;21.30;99.90;;;;;;5087644;28;20214;-68
2022/08/16 01:36:34;;;;;;;23.70;20.17;;;21.30;99.90;;;;;;5079440;28;20040;-68
2022/08/16 01:39:12;;;;;;;25.27;22.10;;;21.30;99.90;;;;;;5083047;28;20056;-68
2022/08/16 01:41:38;;;;;;;25.67;21.33;;;21.20;99.90;;;;;;5085515;28;20123;-68
2022/08/16 01:44:04;;;;;;;27.05;22.73;;;21.20;99.90;;;;;;5081668;28;20040;-68
2022/08/16 01:46:37;;;;;;;38.38;30.65;;;21.20;99.90;;;;;;5082461;28;20045;-68
2022/08/16 01:49:11;;;;;;;34.25;29.80;;;21.20;99.90;;;;;;5083814;28;20035;-68
2022/08/16 01:51:38;;;;;;;41.95;32.92;;;21.10;99.90;;;;;;5074679;28;20040;-68
2022/08/16 01:54:04;;;;;;;43.05;34.78;;;21.10;99.90;;;;;;5092945;28;20075;-69
2022/08/16 01:56:31;;;;;;;40.13;33.53;;;21.10;99.90;;;;;;5080229;28;20071;-69
2022/08/16 01:58:59;;;;;;;37.80;30.65;;;21.10;99.90;;;;;;5105885;28;20150;-69
2022/08/16 02:01:25;;;;;;;33.88;30.20;;;21.00;99.90;;;;;;5103686;28;20065;-69
2022/08/16 02:03:50;;;;;;;36.65;28.88;;;21.00;99.90;;;;;;5085771;28;20040;-68
2022/08/16 02:06:17;;;;;;;38.90;29.05;;;21.00;99.90;;;;;;5089410;28;20066;-68
2022/08/16 02:08:43;;;;;;;27.50;24.52;;;21.00;99.90;;;;;;5086182;28;20067;-68
2022/08/16 02:11:09;;;;;;;36.05;28.63;;;21.00;99.90;;;;;;5082957;28;20033;-69
2022/08/16 02:13:39;;;;;;;29.67;25.92;;;20.90;99.90;;;;;;5094869;28;20047;-68
2022/08/16 02:16:06;;;;;;;35.55;27.45;;;20.90;99.90;;;;;;5075854;28;20116;-69
2022/08/16 02:18:32;;;;;;;29.90;24.73;;;20.90;99.90;;;;;;5097953;28;20046;-68
2022/08/16 02:20:58;;;;;;;28.23;24.08;;;20.80;99.90;;;;;;5086272;28;20111;-69
2022/08/16 02:23:24;;;;;;;30.77;23.65;;;20.80;99.90;;;;;;5085044;28;20044;-68
2022/08/16 02:25:50;;;;;;;27.45;23.00;;;20.80;99.90;;;;;;5085723;28;20047;-69
2022/08/16 02:28:16;;;;;;;24.83;22.13;;;20.80;99.90;;;;;;5094500;28;20097;-68
2022/08/16 02:30:42;;;;;;;23.63;20.52;;;20.80;99.90;;;;;;5084049;28;20040;-69
2022/08/16 02:33:08;;;;;;;25.38;20.50;;;20.80;99.90;;;;;;5078511;28;20055;-68
2022/08/16 02:35:34;;;;;;;24.55;21.95;;;20.80;99.90;;;;;;5086669;28;20047;-69
2022/08/16 02:38:00;;;;;;;25.05;22.08;;;20.80;99.90;;;;;;5088119;28;20135;-69
2022/08/16 02:40:26;;;;;;;25.85;21.45;;;20.80;99.90;;;;;;5090092;28;20075;-69
2022/08/16 02:42:53;;;;;;;25.13;20.30;;;20.80;99.90;;;;;;5090055;28;20048;-69
2022/08/16 02:45:22;;;;;;;25.45;20.20;;;20.80;99.90;;;;;;5091759;28;20103;-69
2022/08/16 02:47:47;;;;;;;23.20;19.20;;;20.80;99.90;;;;;;5081884;28;20040;-69
2022/08/16 02:50:13;;;;;;;21.15;18.85;;;20.70;99.90;;;;;;5089636;28;20119;-69
2022/08/16 02:52:39;;;;;;;22.25;18.90;;;20.70;99.90;;;;;;5092791;28;20051;-70
2022/08/16 02:55:05;;;;;;;22.15;18.33;;;20.70;99.90;;;;;;5092757;28;20047;-69
2022/08/16 02:57:32;;;;;;;25.60;18.02;;;20.80;99.90;;;;;;5093823;28;20032;-69
2022/08/16 02:59:58;;;;;;;22.13;17.83;;;20.80;99.90;;;;;;5088853;28;20130;-70
2022/08/16 03:02:24;;;;;;;19.52;16.98;;;20.80;99.90;;;;;;5078635;28;20036;-69
2022/08/16 03:04:50;;;;;;;23.98;17.27;;;20.80;99.90;;;;;;5098120;28;20040;-69
2022/08/16 03:07:18;;;;;;;21.45;16.95;;;20.80;99.90;;;;;;5083603;28;20043;-69
2022/08/16 03:09:44;;;;;;;;;;;20.80;99.90;;;;;;5091033;28;20054;-70
2022/08/16 03:12:10;;;;;;;20.60;17.33;;;20.80;99.90;;;;;;5081230;28;20027;-70
2022/08/16 03:14:38;;;;;;;20.30;17.42;;;20.80;99.90;;;;;;5079717;28;20078;-69
2022/08/16 03:17:04;;;;;;;27.20;17.23;;;20.80;99.90;;;;;;5094638;28;20044;-70
2022/08/16 03:19:32;;;;;;;19.08;16.98;;;20.80;99.90;;;;;;5091274;28;20071;-70
2022/08/16 03:21:58;;;;;;;22.40;16.98;;;20.80;99.90;;;;;;5078270;28;20122;-69
2022/08/16 03:24:23;;;;;;;20.83;17.45;;;20.80;99.90;;;;;;5085476;28;20131;-70
2022/08/16 03:26:50;;;;;;;22.63;17.60;;;20.80;99.90;;;;;;5082904;28;20479;-69
2022/08/16 03:29:16;;;;;;;24.50;16.73;;;20.80;99.90;;;;;;5094305;28;20098;-69
2022/08/16 03:31:42;;;;;;;20.52;17.58;;;20.70;99.90;;;;;;5079028;28;20543;-70
2022/08/16 03:34:10;;;;;;;21.55;18.10;;;20.70;99.90;;;;;;5098276;28;20138;-70
2022/08/16 03:36:36;;;;;;;20.60;16.80;;;20.70;99.90;;;;;;5083283;28;20134;-70
2022/08/16 03:39:02;;;;;;;19.00;16.85;;;20.70;99.90;;;;;;5102620;28;20440;-69
2022/08/16 03:41:28;;;;;;;20.80;18.08;;;20.60;99.90;;;;;;5086738;28;20039;-70
2022/08/16 03:43:53;;;;;;;21.77;17.27;;;20.60;99.90;;;;;;5076582;28;20036;-69
2022/08/16 03:46:21;;;;;;;19.75;17.50;;;20.60;99.90;;;;;;5079684;28;20044;-69
2022/08/16 03:48:48;;;;;;;19.38;17.27;;;20.50;99.90;;;;;;5080644;28;20111;-70
2022/08/16 03:51:14;;;;;;;22.17;17.67;;;20.50;99.90;;;;;;5095974;28;20040;-70
2022/08/16 03:53:41;;;;;;;22.17;16.88;;;20.40;99.90;;;;;;5090964;28;20067;-69
2022/08/16 03:56:08;;;;;;;22.23;17.15;;;20.40;99.90;;;;;;5093361;28;20047;-70
2022/08/16 03:58:35;;;;;;;19.77;17.67;;;20.40;99.90;;;;;;5079065;28;20048;-70
2022/08/16 04:01:01;;;;;;;22.58;18.13;;;20.30;99.90;;;;;;5077151;28;20039;-69
2022/08/16 04:03:27;;;;;;;21.75;18.23;;;20.30;99.90;;;;;;5081110;28;20040;-70
2022/08/16 04:05:53;;;;;;;21.02;18.25;;;20.20;99.90;;;;;;5072997;28;20036;-69
2022/08/16 04:08:20;;;;;;;26.38;19.95;;;20.20;99.90;;;;;;5072283;28;20474;-69
2022/08/16 04:10:47;;;;;;;23.17;19.67;;;20.10;99.90;;;;;;5078243;28;20051;-70
2022/08/16 04:13:13;;;;;;;23.10;19.75;;;20.10;99.90;;;;;;5080069;28;20041;-69
2022/08/16 04:15:39;;;;;;;26.45;21.48;;;20.10;99.90;;;;;;5076051;28;20051;-70
2022/08/16 04:18:05;;;;;;;27.95;21.15;;;20.00;99.90;;;;;;5075096;28;20032;-69
2022/08/16 04:20:32;;;;;;;28.67;21.83;;;20.00;99.90;;;;;;5082265;28;20123;-70
2022/08/16 04:25:35;;;;;;;25.50;19.67;;;20.00;99.90;;;;;;5016044;22;20607;-68
2022/08/16 04:28:01;;;;;;;27.97;20.67;;;19.90;99.90;;;;;;5136269;27;20058;-67
2022/08/16 04:30:27;;;;;;;25.27;21.23;;;19.90;99.90;;;;;;5152218;27;20300;-68
2022/08/16 04:32:53;;;;;;;21.90;19.70;;;19.90;99.90;;;;;;5132986;27;20047;-69
2022/08/16 04:35:22;;;;;;;23.88;20.45;;;19.80;99.90;;;;;;5147414;27;20038;-68
2022/08/16 04:37:48;;;;;;;20.52;18.42;;;19.80;99.90;;;;;;5148129;27;20054;-69
2022/08/16 04:40:15;;;;;;;27.45;20.70;;;19.80;99.90;;;;;;5147888;27;20450;-68
2022/08/16 04:42:41;;;;;;;20.88;18.75;;;19.80;99.90;;;;;;5146358;27;20034;-68
2022/08/16 04:45:10;;;;;;;29.67;20.38;;;19.80;99.90;;;;;;5153714;27;20095;-67
2022/08/16 04:47:36;;;;;;;25.05;19.67;;;19.80;99.90;;;;;;5154276;27;20140;-67
2022/08/16 04:50:05;;;;;;;23.80;18.33;;;19.80;99.90;;;;;;5153758;27;20103;-68
2022/08/16 04:52:31;;;;;;;27.42;20.85;;;19.80;99.90;;;;;;5138929;27;20039;-69
2022/08/16 04:54:56;;;;;;;24.67;18.83;;;19.70;99.90;;;;;;5151472;27;20095;-68
2022/08/16 04:57:22;;;;;;;24.67;19.17;;;19.70;99.90;;;;;;5154804;27;20053;-68
2022/08/16 04:59:48;;;;;;;25.25;18.08;;;19.70;99.90;;;;;;5153653;27;20035;-69
2022/08/16 05:02:13;;;;;;;20.73;18.45;;;19.70;99.90;;;;;;5150581;27;20039;-68
2022/08/16 05:04:39;;;;;;;22.92;19.35;;;19.80;99.90;;;;;;5150169;27;21859;-68
2022/08/16 05:07:05;;;;;;;24.45;19.83;;;19.80;99.90;;;;;;5154325;27;20058;-68
2022/08/16 05:09:31;;;;;;;21.83;18.80;;;19.80;99.90;;;;;;5154631;27;20054;-68
2022/08/16 05:11:56;;;;;;;24.30;18.48;;;19.80;99.90;;;;;;5136173;27;20104;-68
2022/08/16 05:14:23;;;;;;;21.65;18.50;;;19.80;99.90;;;;;;5148605;27;20480;-67
2022/08/16 05:16:48;;;;;;;20.27;18.15;;;19.80;99.90;;;;;;5151334;27;20038;-68
2022/08/16 05:19:14;;;;;;;22.25;17.35;;;19.80;99.90;;;;;;5155229;27;20065;-68
2022/08/16 05:21:40;;;;;;;23.85;18.00;;;19.90;99.90;;;;;;5152433;27;20375;-69
2022/08/16 05:24:06;;;;;;;22.38;17.23;;;19.90;99.90;;;;;;5146641;27;20122;-68
2022/08/16 05:26:33;;;;;;;21.00;18.10;;;19.90;99.90;;;;;;5133417;27;20047;-68
2022/08/16 05:28:59;;;;;;;22.08;18.40;;;19.90;99.90;;;;;;5132568;27;20091;-68
2022/08/16 05:31:27;;;;;;;23.20;17.55;;;19.90;99.90;;;;;;5132397;27;20119;-68
2022/08/16 05:33:53;;;;;;;27.08;18.10;;;20.00;99.90;;;;;;5134295;27;20398;-68
2022/08/16 05:36:19;;;;;;;20.58;16.73;;;20.00;99.90;;;;;;5126037;27;20100;-68
2022/08/16 05:38:46;;;;;;;27.60;18.08;;;20.00;99.90;;;;;;5133986;27;20130;-67
2022/08/16 05:41:11;;;;;;;23.27;17.75;;;20.10;99.90;;;;;;5135458;27;20066;-67
2022/08/16 05:43:38;;;;;;;24.38;17.15;;;20.20;99.90;;;;;;5133554;27;20469;-69
2022/08/16 05:46:04;;;;;;;24.77;18.08;;;20.20;99.90;;;;;;5134879;27;20146;-68
2022/08/16 05:48:30;;;;;;;21.45;18.23;;;20.20;99.90;;;;;;5101282;28;20047;-67
2022/08/16 05:50:56;;;;;;;22.70;17.73;;;20.20;99.90;;;;;;5123149;27;20212;-67
2022/08/16 05:53:22;;;;;;;22.30;16.83;;;20.30;99.90;;;;;;5132928;27;20126;-68
2022/08/16 05:55:48;;;;;;;22.40;18.65;;;20.30;99.90;;;;;;5128639;27;20136;-68
2022/08/16 05:58:14;;;;;;;21.73;17.88;;;20.40;99.90;;;;;;5130626;27;20043;-68
2022/08/16 06:00:42;;;;;;;19.60;17.52;;;20.40;99.90;;;;;;5125167;27;20463;-69
2022/08/16 06:03:08;;;;;;;20.10;17.35;;;20.40;99.90;;;;;;5123517;27;20118;-68
2022/08/16 06:05:34;;;;;;;21.33;17.50;;;20.50;99.90;;;;;;5132981;27;20062;-68
2022/08/16 06:07:59;;;;;;;19.65;16.40;;;20.50;99.90;;;;;;5121758;27;20080;-68
2022/08/16 06:10:25;;;;;;;25.10;17.15;;;20.60;99.90;;;;;;5132044;27;20035;-68
2022/08/16 06:12:50;;;;;;;29.33;17.40;;;20.60;99.90;;;;;;5120642;27;20401;-69
2022/08/16 06:15:21;;;;;;;21.77;17.65;;;20.70;99.90;;;;;;5133726;27;20480;-67
2022/08/16 06:17:47;;;;;;;21.92;16.25;;;20.80;99.90;;;;;;5133709;27;20042;-69
2022/08/16 06:20:19;;;;;;;22.08;16.45;;;20.90;99.90;;;;;;5133153;27;20497;-69
2022/08/16 06:22:44;;;;;;;19.77;14.75;;;21.00;99.90;;;;;;5135236;27;20032;-68
2022/08/16 06:25:11;;;;;;;23.08;15.95;;;21.20;99.90;;;;;;5128554;27;20104;-69
2022/08/16 06:27:38;;;;;;;17.27;15.20;;;21.30;99.90;;;;;;5120072;27;20104;-68
2022/08/16 06:30:07;;;;;;;19.30;14.60;;;21.60;99.90;;;;;;5133123;27;20119;-68
2022/08/16 06:32:32;;;;;;;22.77;14.82;;;21.90;99.90;;;;;;5125881;27;20088;-69
2022/08/16 06:34:59;;;;;;;19.38;14.20;;;22.40;99.90;;;;;;5133354;27;20035;-67
2022/08/16 06:37:25;;;;;;;19.00;13.63;;;22.80;99.90;;;;;;5130910;27;20035;-68
2022/08/16 06:39:50;;;;;;;16.02;13.63;;;23.20;99.90;;;;;;5132397;27;20379;-69
2022/08/16 06:42:17;;;;;;;17.90;12.95;;;23.50;99.90;;;;;;5111922;27;20473;-68
2022/08/16 06:44:43;;;;;;;17.58;13.68;;;23.80;99.90;;;;;;5132186;27;20394;-69
2022/08/16 06:47:08;;;;;;;16.33;13.90;;;24.10;99.90;;;;;;5128578;27;20038;-69
2022/08/16 06:49:34;;;;;;;16.80;12.65;;;24.30;99.90;;;;;;5132959;27;20087;-68
2022/08/16 06:52:00;;;;;;;18.58;13.80;;;24.50;99.90;;;;;;5132392;27;20042;-67
2022/08/16 06:54:26;;;;;;;16.35;12.98;;;24.40;99.90;;;;;;5128852;27;20046;-67
2022/08/16 06:56:51;;;;;;;19.70;13.35;;;24.20;99.90;;;;;;5125706;27;20144;-70
2022/08/16 06:59:17;;;;;;;21.02;12.63;;;24.10;99.90;;;;;;5132375;27;20046;-68
2022/08/16 07:01:43;;;;;;;35.97;18.48;;;24.00;99.90;;;;;;5130507;27;20039;-67
2022/08/16 07:04:08;;;;;;;19.88;13.32;;;24.00;99.90;;;;;;5133527;27;20071;-69
2022/08/16 07:06:34;;;;;;;19.13;14.10;;;24.00;99.90;;;;;;5121144;27;20450;-68
2022/08/16 07:09:00;;;;;;;24.92;13.85;;;23.90;99.90;;;;;;5129547;27;20031;-68
2022/08/16 07:11:25;;;;;;;16.08;13.70;;;23.80;99.90;;;;;;5128578;27;20084;-68
2022/08/16 07:13:52;;;;;;;19.90;14.10;;;23.80;99.90;;;;;;5127107;27;20047;-68
2022/08/16 07:16:17;;;;;;;15.98;13.82;;;23.80;99.90;;;;;;5131351;27;20448;-68
2022/08/16 07:18:44;;;;;;;17.30;13.88;;;23.80;99.90;;;;;;5133293;27;20128;-69
2022/08/16 07:21:11;;;;;;;16.90;13.13;;;23.80;99.90;;;;;;5132121;27;20068;-68
2022/08/16 07:23:43;;;;;;;17.90;14.15;;;23.80;99.90;;;;;;5133300;27;20050;-68
2022/08/16 07:26:17;;;;;;;16.10;12.93;;;23.90;99.90;;;;;;5130891;27;20421;-69
2022/08/16 07:28:43;;;;;;;17.08;13.13;;;24.00;99.90;;;;;;5109474;27;20031;-68
2022/08/16 07:31:09;;;;;;;16.65;11.88;;;24.10;99.90;;;;;;5126237;27;20042;-68
2022/08/16 07:33:36;;;;;;;14.57;12.30;;;24.20;99.90;;;;;;5129932;27;20031;-68
2022/08/16 07:36:03;;;;;;;15.90;12.77;;;24.30;99.90;;;;;;5125869;27;20114;-67
2022/08/16 07:38:29;;;;;;;14.68;11.15;;;24.40;99.90;;;;;;5132340;27;20054;-68
2022/08/16 07:40:55;;;;;;;15.27;12.05;;;24.40;99.90;;;;;;5133113;27;20039;-68
2022/08/16 07:43:22;;;;;;;18.55;11.43;;;24.50;99.90;;;;;;5130524;27;20126;-70
2022/08/16 07:45:48;;;;;;;16.65;11.38;;;24.60;99.90;;;;;;5131325;27;20045;-69
2022/08/16 07:48:14;;;;;;;13.43;10.90;;;24.60;99.90;;;;;;5128727;27;20043;-67
2022/08/16 07:50:42;;;;;;;15.07;11.93;;;24.60;99.90;;;;;;5121026;27;20110;-68
2022/08/16 07:53:08;;;;;;;14.68;10.77;;;24.70;99.90;;;;;;5131537;27;20047;-68
2022/08/16 07:55:34;;;;;;;16.63;10.85;;;24.70;99.90;;;;;;5131025;27;20073;-69
2022/08/16 07:58:01;;;;;;;19.83;11.10;;;24.80;99.90;;;;;;5127351;27;20051;-68
2022/08/16 08:00:27;;;;;;;13.05;11.55;;;24.80;99.90;;;;;;5116540;27;20057;-68
2022/08/16 08:02:54;;;;;;;14.10;10.25;;;24.90;99.90;;;;;;5110052;27;20039;-68
2022/08/16 08:05:22;;;;;;;15.05;11.45;;;25.00;99.90;;;;;;5125702;27;20047;-67
2022/08/16 08:07:48;;;;;;;17.58;11.30;;;25.00;99.90;;;;;;5116528;27;20153;-68
2022/08/16 08:10:14;;;;;;;11.93;9.95;;;25.10;99.90;;;;;;5082164;28;20039;-68
2022/08/16 08:12:42;;;;;;;13.23;9.73;;;25.10;99.90;;;;;;5128189;27;20498;-67
2022/08/16 08:15:10;;;;;;;12.98;10.30;;;25.20;99.90;;;;;;5127221;27;20431;-68
2022/08/16 08:17:39;;;;;;;18.88;10.10;;;25.30;99.90;;;;;;5123936;27;20118;-69
2022/08/16 08:20:07;;;;;;;13.73;10.75;;;25.50;99.70;;;;;;5132243;27;20066;-67
2022/08/16 08:22:34;;;;;;;14.85;10.88;;;25.60;99.20;;;;;;5114699;28;20039;-68
2022/08/16 08:25:00;;;;;;;13.02;10.38;;;25.70;98.70;;;;;;5116590;28;20130;-68
2022/08/16 08:27:26;;;;;;;14.35;9.02;;;25.80;98.60;;;;;;5113923;28;20585;-69
2022/08/16 08:29:52;;;;;;;13.98;9.65;;;25.80;98.80;;;;;;5129397;27;20139;-69
2022/08/16 08:32:20;;;;;;;12.02;9.95;;;26.00;98.60;;;;;;5120201;27;20119;-68
2022/08/16 08:34:46;;;;;;;12.05;10.18;;;26.10;98.30;;;;;;5119840;28;20043;-68
2022/08/16 08:37:12;;;;;;;12.20;9.75;;;26.20;98.10;;;;;;5118081;27;20130;-68
2022/08/16 08:39:38;;;;;;;12.07;10.45;;;26.20;97.70;;;;;;5119274;27;20130;-68
2022/08/16 08:42:04;;;;;;;15.73;9.93;;;26.30;97.50;;;;;;5130345;27;20035;-68
2022/08/16 08:44:30;;;;;;;13.17;10.23;;;26.40;97.30;;;;;;5133162;27;20035;-69
2022/08/16 08:46:58;;;;;;;12.63;9.27;;;26.40;97.20;;;;;;5132935;27;20039;-69
2022/08/16 08:49:24;;;;;;;14.90;8.05;;;26.50;97.10;;;;;;5120353;27;20533;-68
2022/08/16 08:51:49;;;;;;;13.02;8.60;;;26.60;96.70;;;;;;5113735;28;20063;-68
2022/08/16 08:54:15;;;;;;;11.60;8.43;;;26.70;96.30;;;;;;5133263;27;20039;-68
2022/08/16 08:56:41;;;;;;;20.20;8.40;;;26.70;96.00;;;;;;5131608;28;20122;-68
2022/08/16 08:59:08;;;;;;;17.67;9.48;;;26.80;95.40;;;;;;5133395;28;20038;-68
2022/08/16 09:01:36;;;;;;;15.38;8.27;;;26.90;95.20;;;;;;5131421;28;20490;-69
2022/08/16 09:04:03;;;;;;;;;;;26.90;95.10;;;;;;5132063;28;20046;-67
2022/08/16 09:06:31;;;;;;;11.35;8.85;;;26.90;94.80;;;;;;5128186;27;19927;-68
2022/08/16 09:08:58;;;;;;;13.57;8.13;;;27.10;95.10;;;;;;5128897;28;20143;-69
2022/08/16 09:11:25;;;;;;;8.80;7.25;;;27.20;95.10;;;;;;5131548;27;20550;-68
2022/08/16 09:13:55;;;;;;;12.63;7.78;;;27.30;95.10;;;;;;5132485;27;20050;-68
2022/08/16 09:16:21;;;;;;;11.35;7.88;;;27.40;94.40;;;;;;5126047;27;20031;-68
2022/08/16 09:18:47;;;;;;;11.70;8.75;;;27.60;94.90;;;;;;5129716;28;20088;-66
2022/08/16 09:21:14;;;;;;;15.55;8.02;;;27.70;94.60;;;;;;5130218;27;20455;-69
2022/08/16 09:23:40;;;;;;;10.05;7.03;;;27.80;94.00;;;;;;5119782;28;20039;-68
2022/08/16 09:26:09;;;;;;;10.25;7.78;;;27.90;93.70;;;;;;5127636;27;20461;-69
2022/08/16 09:28:37;;;;;;;10.57;7.72;;;28.00;93.50;;;;;;5123683;27;20036;-69
2022/08/16 09:31:04;;;;;;;9.82;6.53;;;28.10;93.10;;;;;;5115012;27;20504;-67
2022/08/16 09:33:30;;;;;;;12.35;7.22;;;28.20;93.30;;;;;;5116418;27;20059;-68
2022/08/16 09:35:55;;;;;;;10.20;7.78;;;28.30;92.80;;;;;;5134507;27;20032;-68
2022/08/16 09:38:23;;;;;;;12.40;6.53;;;28.40;91.60;;;;;;5136179;27;20144;-68
2022/08/16 09:40:49;;;;;;;9.75;6.45;;;28.40;91.30;;;;;;5135782;27;20047;-67
2022/08/16 09:43:19;;;;;;;9.60;5.87;;;28.40;91.30;;;;;;5133565;27;20035;-66
2022/08/16 09:45:45;;;;;;;14.38;6.20;;;28.40;91.40;;;;;;5128692;27;20047;-66
2022/08/16 09:48:13;;;;;;;7.82;5.55;;;28.50;91.20;;;;;;5135675;27;20035;-67
2022/08/16 09:50:41;;;;;;;9.35;6.55;;;28.60;91.00;;;;;;5134317;27;20046;-68
2022/08/16 09:53:14;;;;;;;18.05;6.35;;;28.80;90.60;;;;;;5117028;27;20039;-67
2022/08/16 09:55:45;;;;;;;8.32;5.90;;;28.90;90.30;;;;;;5135174;27;20049;-67
2022/08/16 09:58:11;;;;;;;12.00;6.03;;;28.90;89.70;;;;;;5125220;27;20065;-67
2022/08/16 10:00:36;;;;;;;10.65;6.85;;;29.00;89.50;;;;;;5129327;27;20189;-67
2022/08/16 10:03:04;;;;;;;13.15;5.68;;;29.10;88.50;;;;;;5116618;27;20551;-66
2022/08/16 10:05:31;;;;;;;12.77;5.68;;;29.10;89.20;;;;;;5118907;27;20046;-68
2022/08/16 10:07:58;;;;;;;7.55;6.10;;;29.30;88.80;;;;;;5125225;27;20046;-65
2022/08/16 10:10:24;;;;;;;9.25;6.20;;;29.40;88.50;;;;;;5130533;27;20470;-66
2022/08/16 10:15:35;;;;;;;11.15;6.45;;;29.60;85.80;;;;;;5135721;27;20070;-67
2022/08/16 10:18:07;;;;;;;13.77;6.97;;;29.70;86.20;;;;;;5132710;27;20042;-67
2022/08/16 10:20:39;;;;;;;9.43;5.95;;;29.80;85.50;;;;;;5114778;28;20513;-66
2022/08/16 10:23:07;;;;;;;7.78;6.05;;;30.00;85.20;;;;;;5127662;27;20122;-67
2022/08/16 10:25:36;;;;;;;12.10;6.72;;;30.20;84.70;;;;;;5135119;27;20122;-67
2022/08/16 10:28:01;;;;;;;11.32;7.03;;;30.30;84.60;;;;;;5133091;27;20086;-66
2022/08/16 10:30:27;;;;;;;12.85;7.72;;;30.50;84.70;;;;;;5134030;27;20071;-69
2022/08/16 10:32:53;;;;;;;11.20;7.40;;;30.50;83.30;;;;;;5132403;27;20448;-68
2022/08/16 10:35:18;;;;;;;11.68;8.02;;;30.70;83.80;;;;;;5132527;27;20404;-67
2022/08/16 10:37:44;;;;;;;8.70;6.13;;;30.80;82.90;;;;;;5130847;27;20039;-67
2022/08/16 10:40:10;;;;;;;12.98;6.55;;;30.90;82.50;;;;;;5129344;27;20095;-68
2022/08/16 10:42:36;;;;;;;10.30;6.00;;;31.00;82.30;;;;;;5133192;27;20422;-68
2022/08/16 10:45:03;;;;;;;12.88;7.05;;;31.10;81.20;;;;;;5131139;27;20293;-68
2022/08/16 10:47:29;;;;;;;9.88;6.50;;;31.20;80.40;;;;;;5131961;27;20046;-66
2022/08/16 10:49:58;;;;;;;11.47;6.67;;;31.40;81.10;;;;;;5121214;27;20039;-67
2022/08/16 10:52:25;;;;;;;9.18;6.50;;;31.60;79.80;;;;;;5118793;27;20132;-68
2022/08/16 10:54:50;;;;;;;;;;;31.80;79.70;;;;;;5127830;27;20046;-66
2022/08/16 10:57:16;;;;;;;12.25;7.50;;;31.80;76.50;;;;;;5134273;27;19919;-68
2022/08/16 10:59:42;;;;;;;13.97;6.00;;;31.90;77.90;;;;;;5132535;27;20032;-67
2022/08/16 11:02:10;;;;;;;11.90;7.45;;;32.10;78.00;;;;;;5133519;27;20486;-67
2022/08/16 11:04:36;;;;;;;9.13;6.47;;;32.30;76.80;;;;;;5134153;27;20049;-69
2022/08/16 11:07:03;;;;;;;9.20;5.80;;;32.50;77.90;;;;;;5133424;27;20031;-67
2022/08/16 11:09:30;;;;;;;8.15;5.47;;;32.70;76.90;;;;;;5132873;27;20035;-67
2022/08/16 11:11:56;;;;;;;9.00;5.55;;;33.00;76.80;;;;;;5134334;27;20535;-67
2022/08/16 11:14:23;;;;;;;9.43;5.75;;;33.20;75.40;;;;;;5130931;27;20044;-66
2022/08/16 11:16:48;;;;;;;11.13;6.07;;;33.30;75.00;;;;;;5127545;27;20058;-66
2022/08/16 11:19:14;;;;;;;10.43;5.60;;;33.50;73.90;;;;;;5133386;27;20118;-67
2022/08/16 11:21:42;;;;;;;12.43;7.27;;;33.40;73.70;;;;;;5118483;27;20039;-67
2022/08/16 11:24:07;;;;;;;8.80;6.07;;;33.40;73.40;;;;;;5123796;27;20039;-66
2022/08/16 11:26:33;;;;;;;13.13;5.37;;;33.40;73.30;;;;;;5132500;27;20054;-68
2022/08/16 11:28:59;;;;;;;10.07;5.20;;;33.50;73.60;;;;;;5119316;27;20078;-66
2022/08/16 11:31:25;;;;;;;15.30;6.27;;;33.60;73.20;;;;;;5113728;27;20479;-67
2022/08/16 11:33:51;;;;;;;8.27;5.83;;;33.50;71.80;;;;;;5125598;27;20039;-67
2022/08/16 11:36:18;;;;;;;9.02;5.07;;;33.60;72.00;;;;;;5133275;27;20277;-68
2022/08/16 11:38:44;;;;;;;12.27;5.00;;;33.70;72.20;;;;;;5131552;27;20039;-68
2022/08/16 11:41:10;;;;;;;7.55;4.93;;;33.50;70.10;;;;;;5131666;27;20096;-69
2022/08/16 11:43:39;;;;;;;9.57;4.50;;;33.40;70.00;;;;;;5131993;27;20035;-68
2022/08/16 11:46:09;;;;;;;7.47;4.80;;;33.40;70.30;;;;;;5130263;27;20039;-68
2022/08/16 11:48:36;;;;;;;7.82;4.93;;;33.30;69.00;;;;;;5127816;27;20067;-67
2022/08/16 11:51:03;;;;;;;11.07;4.47;;;33.30;69.60;;;;;;5125998;27;20046;-68
2022/08/16 11:53:31;;;;;;;9.90;5.38;;;33.20;70.00;;;;;;5131611;27;20046;-67
2022/08/16 11:55:58;;;;;;;9.90;5.30;;;33.20;69.20;;;;;;5125212;27;20073;-67
2022/08/16 11:58:26;;;;;;;9.57;5.20;;;33.20;69.40;;;;;;5129137;27;20084;-65
2022/08/16 12:00:54;;;;;;;7.82;4.90;;;33.20;68.80;;;;;;5130950;27;20042;-66
2022/08/16 12:03:22;;;;;;;9.45;5.05;;;33.00;68.60;;;;;;5122558;27;20442;-66
2022/08/16 12:05:48;;;;;;;9.38;4.88;;;33.00;68.90;;;;;;5131863;27;20043;-67
2022/08/16 12:08:14;;;;;;;10.53;5.37;;;32.90;69.10;;;;;;5123037;27;20131;-67
2022/08/16 12:10:41;;;;;;;9.15;4.60;;;32.90;69.80;;;;;;5115572;27;20049;-67
2022/08/16 12:13:07;;;;;;;;;;;32.90;69.20;;;;;;5121033;27;20069;-68
2022/08/16 12:15:34;;;;;;;10.00;4.72;;;33.00;70.40;;;;;;5131760;27;19919;-67
2022/08/16 12:17:59;;;;;;;10.38;4.50;;;33.10;70.10;;;;;;5131276;27;20046;-67
2022/08/16 12:20:29;;;;;;;8.93;4.67;;;33.10;69.10;;;;;;5124896;27;20036;-66
2022/08/16 12:22:56;;;;;;;14.20;6.03;;;32.80;68.80;;;;;;5131805;27;20030;-67
2022/08/16 12:25:24;;;;;;;10.02;4.80;;;32.60;68.80;;;;;;5132707;27;20050;-67
2022/08/16 12:27:51;;;;;;;8.85;5.30;;;32.40;69.90;;;;;;5133459;27;20409;-66
2022/08/16 12:30:21;;;;;;;9.95;4.80;;;32.40;70.40;;;;;;5118191;28;20049;-66
2022/08/16 12:32:47;;;;;;;7.70;4.78;;;32.40;69.30;;;;;;5123466;28;20046;-65
2022/08/16 12:35:16;;;;;;;11.20;5.13;;;32.50;70.30;;;;;;5129850;28;20039;-67
2022/08/16 12:37:43;;;;;;;7.05;4.80;;;32.50;69.30;;;;;;5130941;27;20123;-66